Time;durP1;ratioP1;P1;durP2;ratioP2;P2;SDS_P1;SDS_P2;PMS_P1;PMS_P2;Temp;Humidity;BMP_temperature;BMP_pressure;BME280_temperature;BME280_humidity;BME280_pressure;Samples;Min_cycle;Max_cycle;Signal;HPM_P1;HPM_P2
2022/10/17 00:00:45;;;;;;;15.87;9.67;;;13.40;99.90;;;;;;5069668;28;20501;-61
2022/10/17 00:03:13;;;;;;;17.30;10.53;;;13.40;99.90;;;;;;5069608;28;21149;-60
2022/10/17 00:05:41;;;;;;;20.17;7.70;;;13.40;99.90;;;;;;5070402;28;20482;-60
2022/10/17 00:08:08;;;;;;;21.40;13.43;;;13.30;99.90;;;;;;5064133;28;20489;-61
2022/10/17 00:10:36;;;;;;;11.97;8.37;;;13.30;99.90;;;;;;5069516;28;20475;-60
2022/10/17 00:13:02;;;;;;;24.13;12.20;;;13.40;99.90;;;;;;5069389;28;20842;-61
2022/10/17 00:15:31;;;;;;;14.37;9.33;;;13.40;99.90;;;;;;5069671;28;20860;-61
2022/10/17 00:17:57;;;;;;;19.20;10.57;;;13.50;99.90;;;;;;5066181;28;20838;-61
2022/10/17 00:20:25;;;;;;;18.60;8.73;;;13.50;99.90;;;;;;5069978;28;20471;-61
2022/10/17 00:22:52;;;;;;;20.40;10.00;;;13.60;99.90;;;;;;5068457;28;20494;-61
2022/10/17 00:25:20;;;;;;;18.77;10.10;;;13.60;99.90;;;;;;5068597;27;20896;-61
2022/10/17 00:27:46;;;;;;;20.87;9.87;;;13.50;99.90;;;;;;5065334;28;20474;-61
2022/10/17 00:30:15;;;;;;;16.83;10.77;;;13.50;99.90;;;;;;5071127;28;20478;-60
2022/10/17 00:32:43;;;;;;;11.30;8.27;;;13.50;99.90;;;;;;5072487;28;20486;-61
2022/10/17 00:35:10;;;;;;;21.90;10.80;;;13.60;99.90;;;;;;5070558;28;20493;-61
2022/10/17 00:37:37;;;;;;;18.33;10.63;;;13.60;99.90;;;;;;5061987;28;21060;-61
2022/10/17 00:40:06;;;;;;;19.17;12.40;;;13.50;99.90;;;;;;5062169;28;20478;-60
2022/10/17 00:42:32;;;;;;;13.53;7.50;;;13.50;99.90;;;;;;5069876;28;20488;-61
2022/10/17 00:45:17;;;;;;;21.40;13.33;;;13.40;99.90;;;;;;5069605;28;21021;-60
2022/10/17 00:47:48;;;;;;;16.80;8.07;;;13.30;99.90;;;;;;5067512;28;20497;-61
2022/10/17 00:50:15;;;;;;;14.93;8.10;;;13.40;99.90;;;;;;5067454;28;20569;-61
2022/10/17 00:52:46;;;;;;;13.33;8.90;;;13.40;99.90;;;;;;5071907;28;20485;-61
2022/10/17 00:55:16;;;;;;;16.30;9.87;;;13.30;99.90;;;;;;5052595;28;20478;-61
2022/10/17 00:57:44;;;;;;;12.77;7.83;;;13.40;99.90;;;;;;5075108;28;20454;-60
2022/10/17 01:00:12;;;;;;;13.43;8.23;;;13.40;99.90;;;;;;5059464;28;20553;-62
2022/10/17 01:02:39;;;;;;;15.00;8.97;;;13.40;99.90;;;;;;5069898;28;20998;-61
2022/10/17 01:05:09;;;;;;;23.37;12.00;;;13.50;99.90;;;;;;5070212;28;20668;-60
2022/10/17 01:07:37;;;;;;;27.77;8.63;;;13.40;99.90;;;;;;5060365;28;20473;-60
2022/10/17 01:10:06;;;;;;;25.97;12.00;;;13.50;99.90;;;;;;5073598;28;20490;-61
2022/10/17 01:12:41;;;;;;;12.60;7.80;;;13.50;99.90;;;;;;5073132;28;20479;-61
2022/10/17 01:15:16;;;;;;;16.73;10.87;;;13.50;99.90;;;;;;5071170;28;20485;-61
2022/10/17 01:17:54;;;;;;;19.77;9.67;;;13.50;99.90;;;;;;5068530;28;20482;-61
2022/10/17 01:20:51;;;;;;;18.40;8.00;;;13.40;99.90;;;;;;5061510;28;20469;-61
2022/10/17 01:23:30;;;;;;;19.30;8.77;;;13.40;99.90;;;;;;5070735;28;20478;-61
2022/10/17 01:26:04;;;;;;;18.37;11.40;;;13.40;99.90;;;;;;5060248;28;20586;-60
2022/10/17 01:28:50;;;;;;;12.00;7.50;;;13.30;99.90;;;;;;5068120;28;20865;-60
2022/10/17 01:31:22;;;;;;;10.90;7.93;;;13.30;99.90;;;;;;5064833;28;20513;-61
2022/10/17 01:33:59;;;;;;;14.13;8.40;;;13.30;99.90;;;;;;5060744;28;20896;-60
2022/10/17 01:36:35;;;;;;;12.73;8.60;;;13.30;99.90;;;;;;5056452;28;20486;-61
2022/10/17 01:39:10;;;;;;;27.57;12.70;;;13.30;99.90;;;;;;5060424;28;20489;-61
2022/10/17 01:41:43;;;;;;;14.40;9.43;;;13.30;99.90;;;;;;5069438;28;20667;-61
2022/10/17 01:44:11;;;;;;;14.33;8.70;;;;;;;;;;5076813;28;20489;-61
2022/10/17 01:46:43;;;;;;;15.90;9.17;;;13.30;99.90;;;;;;5073932;28;20489;-62
2022/10/17 01:49:13;;;;;;;18.30;11.20;;;13.30;99.90;;;;;;5074404;28;20474;-61
2022/10/17 01:51:45;;;;;;;9.47;6.83;;;13.30;99.90;;;;;;5077032;28;21300;-60
2022/10/17 01:54:19;;;;;;;16.37;9.53;;;13.30;99.90;;;;;;5079346;28;20981;-61
2022/10/17 01:56:47;;;;;;;16.77;9.20;;;13.30;99.90;;;;;;5077500;28;20836;-60
2022/10/17 01:59:19;;;;;;;14.07;9.17;;;13.20;99.90;;;;;;5075227;28;20489;-60
2022/10/17 02:01:52;;;;;;;18.67;11.33;;;13.20;99.90;;;;;;5069636;28;20497;-61
2022/10/17 02:04:19;;;;;;;16.23;7.33;;;13.20;99.90;;;;;;5086252;28;20837;-61
2022/10/17 02:06:46;;;;;;;19.50;9.73;;;13.20;99.90;;;;;;5074208;28;21278;-61
2022/10/17 02:09:22;;;;;;;13.30;8.80;;;13.20;99.90;;;;;;5070332;28;20474;-61
2022/10/17 02:12:03;;;;;;;17.70;8.60;;;13.10;99.90;;;;;;5065126;28;20858;-60
2022/10/17 02:14:38;;;;;;;14.63;9.40;;;;;;;;;;5058469;28;20477;-60
2022/10/17 02:17:17;;;;;;;20.27;11.30;;;13.10;99.90;;;;;;5072834;28;20482;-60
2022/10/17 02:19:54;;;;;;;17.97;8.10;;;13.10;99.90;;;;;;5067794;28;20483;-61
2022/10/17 02:22:29;;;;;;;13.83;8.97;;;13.10;99.90;;;;;;5076820;28;20562;-60
2022/10/17 02:25:03;;;;;;;19.87;12.07;;;13.00;99.90;;;;;;5074010;28;20481;-60
2022/10/17 02:27:37;;;;;;;15.13;6.10;;;13.00;99.90;;;;;;5075054;28;20473;-60
2022/10/17 02:30:09;;;;;;;21.20;12.77;;;13.00;99.90;;;;;;5073482;28;20516;-61
2022/10/17 02:32:44;;;;;;;16.90;6.60;;;13.00;99.90;;;;;;5075541;28;20891;-60
2022/10/17 02:35:14;;;;;;;14.73;9.90;;;13.00;99.90;;;;;;5070293;28;20742;-60
2022/10/17 02:37:44;;;;;;;12.80;8.93;;;13.00;99.90;;;;;;5071928;28;21095;-60
2022/10/17 02:40:14;;;;;;;13.70;8.53;;;13.00;99.90;;;;;;5074046;28;20486;-61
2022/10/17 02:42:44;;;;;;;9.20;7.10;;;13.00;99.90;;;;;;5073911;28;20510;-60
2022/10/17 02:45:11;;;;;;;12.07;7.40;;;13.00;99.90;;;;;;5073478;28;20485;-60
2022/10/17 02:47:49;;;;;;;12.00;7.23;;;13.00;99.90;;;;;;5078407;28;20878;-61
2022/10/17 02:50:16;;;;;;;14.53;8.60;;;13.00;99.90;;;;;;5073214;28;21018;-61
2022/10/17 02:52:48;;;;;;;19.60;7.70;;;13.00;99.90;;;;;;5072899;28;20482;-60
2022/10/17 02:55:18;;;;;;;16.67;8.57;;;13.00;99.90;;;;;;5069041;28;20492;-61
2022/10/17 02:57:48;;;;;;;14.53;7.80;;;13.00;99.90;;;;;;5073791;28;20616;-60
2022/10/17 03:00:17;;;;;;;11.23;6.97;;;13.00;99.90;;;;;;5057703;28;20879;-61
2022/10/17 03:02:48;;;;;;;15.93;9.97;;;13.00;99.90;;;;;;5069513;28;20482;-60
2022/10/17 03:05:18;;;;;;;18.97;8.23;;;13.00;99.90;;;;;;5066271;28;20486;-61
2022/10/17 03:07:45;;;;;;;13.80;8.33;;;12.90;99.90;;;;;;5072670;28;20482;-61
2022/10/17 03:10:12;;;;;;;11.83;7.60;;;12.90;99.90;;;;;;5058787;28;20470;-60
2022/10/17 03:12:39;;;;;;;19.93;8.80;;;12.90;99.90;;;;;;5087690;28;20560;-61
2022/10/17 03:15:06;;;;;;;19.90;10.77;;;12.90;99.90;;;;;;5072872;28;20497;-60
2022/10/17 03:17:35;;;;;;;11.80;7.00;;;12.80;99.90;;;;;;5073681;28;20489;-61
2022/10/17 03:20:03;;;;;;;22.33;10.73;;;12.80;99.90;;;;;;5061266;28;20795;-60
2022/10/17 03:22:31;;;;;;;14.60;7.70;;;12.80;99.90;;;;;;5073160;28;20493;-60
2022/10/17 03:24:58;;;;;;;19.23;10.13;;;12.80;99.90;;;;;;5073939;28;20471;-60
2022/10/17 03:27:25;;;;;;;14.67;7.23;;;12.80;99.90;;;;;;5073395;28;20859;-61
2022/10/17 03:29:51;;;;;;;21.23;9.77;;;12.80;99.90;;;;;;5074126;28;20897;-61
2022/10/17 03:32:18;;;;;;;11.47;7.47;;;12.80;99.90;;;;;;5075043;28;20501;-60
2022/10/17 03:34:45;;;;;;;17.13;8.23;;;12.90;99.90;;;;;;5071981;28;20479;-61
2022/10/17 03:37:13;;;;;;;15.40;8.63;;;12.80;99.90;;;;;;5059952;28;20483;-61
2022/10/17 03:39:39;;;;;;;19.93;10.63;;;12.80;99.90;;;;;;5073200;28;20482;-60
2022/10/17 03:42:06;;;;;;;29.17;11.07;;;12.70;99.90;;;;;;5073681;28;21260;-61
2022/10/17 03:44:33;;;;;;;11.77;7.60;;;12.60;99.90;;;;;;5060673;28;20486;-60
2022/10/17 03:47:00;;;;;;;17.77;11.23;;;12.60;99.90;;;;;;5070069;28;20477;-60
2022/10/17 03:49:26;;;;;;;19.50;10.77;;;12.60;99.90;;;;;;5072023;28;21035;-61
2022/10/17 03:51:53;;;;;;;20.57;12.50;;;12.60;99.90;;;;;;5073720;28;20482;-60
2022/10/17 03:54:21;;;;;;;36.77;11.27;;;12.50;99.90;;;;;;5067495;28;20501;-61
2022/10/17 03:56:48;;;;;;;17.97;8.87;;;12.50;99.90;;;;;;5066861;28;20854;-60
2022/10/17 03:59:15;;;;;;;17.00;10.93;;;12.40;99.90;;;;;;5070318;28;20757;-61
2022/10/17 04:01:42;;;;;;;21.33;8.83;;;12.50;99.90;;;;;;5068602;28;20471;-60
2022/10/17 04:04:09;;;;;;;18.27;8.87;;;11.20;99.90;;;;;;5072174;28;20478;-60
2022/10/17 04:06:37;;;;;;;13.00;7.80;;;12.40;99.90;;;;;;5059621;28;20477;-62
2022/10/17 04:09:05;;;;;;;29.00;15.53;;;12.40;99.90;;;;;;5069227;28;20473;-60
2022/10/17 04:11:33;;;;;;;17.80;8.23;;;12.40;99.90;;;;;;5075055;28;20481;-62
2022/10/17 04:13:59;;;;;;;27.10;14.30;;;12.50;99.90;;;;;;5073320;28;20478;-62
2022/10/17 04:16:27;;;;;;;17.13;8.90;;;;;;;;;;5070987;28;20488;-61
2022/10/17 04:18:55;;;;;;;23.43;9.97;;;12.40;99.90;;;;;;5073203;28;20599;-61
2022/10/17 04:21:23;;;;;;;13.23;7.63;;;12.40;99.90;;;;;;5073625;28;21013;-61
2022/10/17 04:23:53;;;;;;;21.00;7.73;;;11.30;99.90;;;;;;5071992;28;20483;-61
2022/10/17 04:26:20;;;;;;;19.77;10.23;;;12.40;99.90;;;;;;5068531;28;20489;-62
2022/10/17 04:28:48;;;;;;;15.23;8.63;;;12.30;99.90;;;;;;5067120;28;20474;-62
2022/10/17 04:31:15;;;;;;;26.97;7.90;;;12.30;99.90;;;;;;5069520;28;20490;-61
2022/10/17 04:33:43;;;;;;;14.63;8.80;;;12.30;99.90;;;;;;5078981;28;20769;-62
2022/10/17 04:36:12;;;;;;;28.00;12.30;;;12.20;99.90;;;;;;5075657;28;20601;-62
2022/10/17 04:38:39;;;;;;;21.40;6.87;;;12.30;99.90;;;;;;5078143;28;20892;-61
2022/10/17 04:41:08;;;;;;;26.30;13.20;;;12.20;99.90;;;;;;5073233;28;20894;-61
2022/10/17 04:43:36;;;;;;;19.50;8.07;;;12.30;99.90;;;;;;5072263;28;20477;-61
2022/10/17 04:46:07;;;;;;;25.60;10.53;;;12.30;99.90;;;;;;5068708;28;20490;-61
2022/10/17 04:48:33;;;;;;;9.83;6.47;;;12.30;99.90;;;;;;5072897;28;20470;-61
2022/10/17 04:51:03;;;;;;;20.47;10.23;;;12.40;99.90;;;;;;5073328;28;20478;-62
2022/10/17 04:53:32;;;;;;;15.00;6.73;;;12.40;99.90;;;;;;5073158;28;21021;-61
2022/10/17 04:55:59;;;;;;;32.43;15.87;;;12.40;99.90;;;;;;5070043;28;20823;-61
2022/10/17 04:58:26;;;;;;;17.43;10.03;;;12.40;99.90;;;;;;5069843;28;20489;-62
2022/10/17 05:00:52;;;;;;;19.93;10.57;;;12.40;99.90;;;;;;5070259;28;20497;-61
2022/10/17 05:03:21;;;;;;;12.53;7.33;;;12.30;99.90;;;;;;5068883;28;20478;-61
2022/10/17 05:05:48;;;;;;;16.73;9.33;;;;;;;;;;5060381;28;20887;-62
2022/10/17 05:08:15;;;;;;;15.60;9.23;;;12.10;99.90;;;;;;5062479;28;20982;-62
2022/10/17 05:10:44;;;;;;;14.03;7.70;;;12.00;99.90;;;;;;5065716;28;20487;-62
2022/10/17 05:13:11;;;;;;;16.80;9.43;;;11.90;99.90;;;;;;5069772;28;20482;-63
2022/10/17 05:15:38;;;;;;;16.27;9.30;;;11.90;99.90;;;;;;5070831;28;20995;-62
2022/10/17 05:18:06;;;;;;;26.67;13.33;;;11.90;99.90;;;;;;5068405;28;20607;-61
2022/10/17 05:20:34;;;;;;;18.90;7.83;;;12.00;99.90;;;;;;5066666;28;20482;-61
2022/10/17 05:23:02;;;;;;;22.73;12.20;;;12.00;99.90;;;;;;5068726;28;20483;-61
2022/10/17 05:25:29;;;;;;;18.83;9.93;;;12.00;99.90;;;;;;5071033;28;20473;-61
2022/10/17 05:27:55;;;;;;;21.63;10.27;;;12.00;99.90;;;;;;5063738;28;20489;-61
2022/10/17 05:30:22;;;;;;;13.33;7.70;;;12.10;99.90;;;;;;5062715;28;20483;-61
2022/10/17 05:32:52;;;;;;;22.33;9.90;;;12.10;99.90;;;;;;5070990;28;20857;-61
2022/10/17 05:35:19;;;;;;;16.27;9.37;;;12.20;99.90;;;;;;5068446;28;20833;-62
2022/10/17 05:37:47;;;;;;;15.60;9.37;;;12.20;99.90;;;;;;5070504;28;21064;-62
2022/10/17 05:40:14;;;;;;;14.90;8.67;;;12.20;99.90;;;;;;5069918;28;20998;-62
2022/10/17 05:42:45;;;;;;;9.80;5.70;;;12.10;99.90;;;;;;5072322;28;20486;-61
2022/10/17 05:45:12;;;;;;;26.27;10.70;;;12.10;99.90;;;;;;5069156;28;20478;-61
2022/10/17 05:47:38;;;;;;;13.20;7.10;;;12.00;99.90;;;;;;5069903;28;20889;-62
2022/10/17 05:50:06;;;;;;;21.60;9.13;;;11.90;99.90;;;;;;5064366;28;20495;-62
2022/10/17 05:52:33;;;;;;;11.03;7.20;;;11.90;99.90;;;;;;5064741;28;20477;-61
2022/10/17 05:55:01;;;;;;;31.43;14.27;;;11.90;99.90;;;;;;5071482;28;20471;-62
2022/10/17 05:57:27;;;;;;;23.03;8.63;;;12.00;99.90;;;;;;5067863;28;20477;-61
2022/10/17 05:59:54;;;;;;;19.07;9.77;;;12.00;99.90;;;;;;5072394;28;21095;-61
2022/10/17 06:02:21;;;;;;;18.63;10.13;;;12.10;99.90;;;;;;5072722;28;20467;-61
2022/10/17 06:04:48;;;;;;;20.47;9.57;;;12.10;99.90;;;;;;5057681;28;20574;-62
2022/10/17 06:07:15;;;;;;;15.50;8.73;;;12.10;99.90;;;;;;5065387;28;21209;-62
2022/10/17 06:09:42;;;;;;;12.60;7.77;;;12.10;99.90;;;;;;5069696;28;21014;-62
2022/10/17 06:12:10;;;;;;;17.73;8.07;;;11.00;99.90;;;;;;5070250;28;20470;-61
2022/10/17 06:14:37;;;;;;;13.67;6.97;;;12.20;99.90;;;;;;5071098;28;20513;-62
2022/10/17 06:17:04;;;;;;;24.43;12.90;;;12.20;99.90;;;;;;5069580;28;20475;-61
2022/10/17 06:19:31;;;;;;;24.77;9.93;;;12.30;99.90;;;;;;5073126;28;20727;-62
2022/10/17 06:21:57;;;;;;;27.73;16.00;;;12.30;99.90;;;;;;5069218;28;20479;-62
2022/10/17 06:24:24;;;;;;;32.93;12.83;;;12.30;99.90;;;;;;5072215;28;20486;-62
2022/10/17 06:26:51;;;;;;;19.20;9.30;;;12.30;99.90;;;;;;5060267;28;20468;-62
2022/10/17 06:29:19;;;;;;;17.77;9.23;;;12.30;99.90;;;;;;5073529;28;20486;-62
2022/10/17 06:31:46;;;;;;;17.93;10.30;;;12.30;99.90;;;;;;5068922;28;20474;-61
2022/10/17 06:34:12;;;;;;;23.33;9.20;;;12.30;99.90;;;;;;5069427;28;20929;-61
2022/10/17 06:36:39;;;;;;;16.07;10.20;;;12.30;99.90;;;;;;5063174;28;20475;-61
2022/10/17 06:39:06;;;;;;;27.73;13.57;;;12.40;99.90;;;;;;5069418;28;20848;-61
2022/10/17 06:41:32;;;;;;;14.30;7.57;;;14.90;99.90;;;;;;5076562;28;20482;-62
2022/10/17 06:43:59;;;;;;;29.73;14.97;;;12.60;99.90;;;;;;5075390;28;20487;-61
2022/10/17 06:46:28;;;;;;;19.43;11.33;;;12.20;99.90;;;;;;5070945;28;20475;-61
2022/10/17 06:48:55;;;;;;;27.20;13.43;;;12.70;99.90;;;;;;5071185;28;21930;-61
2022/10/17 06:51:22;;;;;;;19.43;9.37;;;12.80;99.90;;;;;;5075387;28;20498;-62
2022/10/17 06:53:49;;;;;;;20.70;10.20;;;12.90;99.90;;;;;;5074836;28;20487;-61
2022/10/17 06:56:15;;;;;;;23.73;10.63;;;13.10;99.90;;;;;;5067457;28;20483;-61
2022/10/17 06:58:42;;;;;;;16.77;9.30;;;13.10;99.90;;;;;;5075994;28;20494;-61
2022/10/17 07:01:12;;;;;;;24.33;13.33;;;13.70;99.90;;;;;;5072936;28;20896;-62
2022/10/17 07:03:40;;;;;;;21.43;10.30;;;14.70;99.90;;;;;;5075127;28;20490;-62
2022/10/17 07:06:09;;;;;;;25.13;15.83;;;15.80;99.90;;;;;;5071437;28;20475;-61
2022/10/17 07:08:37;;;;;;;11.00;8.33;;;16.80;99.90;;;;;;5073851;28;20527;-61
2022/10/17 07:11:09;;;;;;;24.00;11.63;;;18.10;99.90;;;;;;5057094;28;20682;-61
2022/10/17 07:13:36;;;;;;;11.23;6.27;;;19.10;99.90;;;;;;5067582;28;20495;-63
2022/10/17 07:16:03;;;;;;;25.73;13.07;;;19.80;99.90;;;;;;5063220;28;20474;-62
2022/10/17 07:18:30;;;;;;;18.90;7.20;;;20.40;99.90;;;;;;5067373;28;20467;-62
2022/10/17 07:20:58;;;;;;;10.70;7.77;;;20.70;99.90;;;;;;5062696;28;20519;-63
2022/10/17 07:23:25;;;;;;;10.40;7.37;;;21.40;99.90;;;;;;5067972;28;20481;-63
2022/10/17 07:25:51;;;;;;;19.87;9.83;;;21.70;99.90;;;;;;5069770;28;20489;-62
2022/10/17 07:28:19;;;;;;;11.87;7.60;;;22.00;99.90;;;;;;5065625;28;20489;-63
2022/10/17 07:30:45;;;;;;;13.27;6.67;;;22.30;99.90;;;;;;5066554;28;20490;-63
2022/10/17 07:33:12;;;;;;;6.97;6.27;;;22.50;99.90;;;;;;5070838;28;20474;-63
2022/10/17 07:35:40;;;;;;;12.70;9.10;;;22.70;99.90;;;;;;5063069;28;20918;-64
2022/10/17 07:38:08;;;;;;;9.50;7.07;;;22.60;99.60;;;;;;5078488;28;21103;-63
2022/10/17 07:40:35;;;;;;;9.73;5.57;;;22.60;99.10;;;;;;5066128;28;20960;-64
2022/10/17 07:43:02;;;;;;;13.00;8.37;;;;;;;;;;5068627;28;20485;-63
2022/10/17 07:45:29;;;;;;;7.63;5.90;;;22.60;99.20;;;;;;5070641;28;20493;-64
2022/10/17 07:47:57;;;;;;;9.03;6.23;;;22.60;98.20;;;;;;5061550;28;20762;-63
2022/10/17 07:50:24;;;;;;;6.70;5.43;;;22.70;98.00;;;;;;5085577;28;21256;-63
2022/10/17 07:52:51;;;;;;;22.67;6.30;;;23.00;98.00;;;;;;5067142;28;20464;-63
2022/10/17 07:55:19;;;;;;;8.73;5.60;;;23.10;97.50;;;;;;5071382;28;20878;-63
2022/10/17 07:57:45;;;;;;;7.43;5.73;;;23.20;97.60;;;;;;5067963;28;21194;-64
2022/10/17 08:00:13;;;;;;;12.13;5.30;;;23.00;97.30;;;;;;5071533;28;20848;-63
2022/10/17 08:02:39;;;;;;;6.33;5.73;;;22.90;97.20;;;;;;5069872;28;20452;-62
2022/10/17 08:05:07;;;;;;;8.10;7.30;;;23.00;96.90;;;;;;5069181;28;20460;-63
2022/10/17 08:07:33;;;;;;;10.03;5.43;;;22.90;97.00;;;;;;5064875;28;20456;-64
2022/10/17 08:10:00;;;;;;;5.87;5.27;;;22.80;96.60;;;;;;5078052;28;20702;-63
2022/10/17 08:12:30;;;;;;;6.43;5.80;;;22.80;96.60;;;;;;5066230;27;21126;-63
2022/10/17 08:14:57;;;;;;;19.33;4.97;;;22.70;97.20;;;;;;5076031;28;20481;-63
2022/10/17 08:17:24;;;;;;;6.40;5.03;;;22.40;96.70;;;;;;5069509;28;20456;-64
2022/10/17 08:19:51;;;;;;;4.50;4.13;;;22.50;97.20;;;;;;5069678;28;20455;-63
2022/10/17 08:22:18;;;;;;;21.10;6.10;;;22.30;97.00;;;;;;5069735;28;20474;-63
2022/10/17 08:24:45;;;;;;;5.23;4.73;;;22.10;96.80;;;;;;5071126;28;20456;-64
2022/10/17 08:27:12;;;;;;;9.87;6.93;;;22.00;97.20;;;;;;5067335;28;20674;-64
2022/10/17 08:29:41;;;;;;;19.40;4.60;;;22.00;97.40;;;;;;5067101;28;21140;-63
2022/10/17 08:32:09;;;;;;;19.40;8.63;;;22.00;97.60;;;;;;5060234;28;21083;-63
2022/10/17 08:34:35;;;;;;;5.60;5.03;;;22.10;97.90;;;;;;5078910;28;20605;-62
2022/10/17 08:37:02;;;;;;;11.13;6.80;;;22.10;97.90;;;;;;5067782;28;20484;-63
2022/10/17 08:39:29;;;;;;;10.80;6.23;;;22.00;97.50;;;;;;5066654;28;20460;-63
2022/10/17 08:42:04;;;;;;;14.43;8.67;;;22.10;98.00;;;;;;5068718;28;20452;-64
2022/10/17 08:44:45;;;;;;;5.73;5.13;;;22.20;98.00;;;;;;5069765;28;20478;-64
2022/10/17 08:47:20;;;;;;;6.27;5.63;;;22.20;98.20;;;;;;5056206;28;20460;-63
2022/10/17 08:49:53;;;;;;;8.80;5.97;;;22.30;99.10;;;;;;5061426;28;20619;-64
2022/10/17 08:52:29;;;;;;;9.93;6.63;;;22.40;98.50;;;;;;5057990;28;20505;-64
2022/10/17 08:54:56;;;;;;;14.57;8.23;;;22.40;98.50;;;;;;5059666;28;20449;-63
2022/10/17 08:57:23;;;;;;;12.70;7.03;;;22.40;99.20;;;;;;5080142;28;20476;-63
2022/10/17 08:59:55;;;;;;;9.03;7.20;;;22.60;98.90;;;;;;5050664;28;20565;-64
2022/10/17 09:02:44;;;;;;;9.50;7.37;;;22.50;97.90;;;;;;5056967;28;20467;-64
2022/10/17 09:05:34;;;;;;;13.40;6.90;;;22.40;98.00;;;;;;5061506;28;20734;-64
2022/10/17 09:08:09;;;;;;;10.97;7.07;;;22.20;98.10;;;;;;5053623;28;20562;-64
2022/10/17 09:10:47;;;;;;;26.53;7.50;;;22.30;98.40;;;;;;5060658;28;20506;-63
2022/10/17 09:13:25;;;;;;;9.90;6.73;;;22.30;98.80;;;;;;5065890;28;20481;-64
2022/10/17 09:16:10;;;;;;;12.40;6.13;;;22.30;98.20;;;;;;5053862;28;20455;-63
2022/10/17 09:18:40;;;;;;;9.00;6.20;;;22.20;98.30;;;;;;5068417;28;20760;-64
2022/10/17 09:21:17;;;;;;;14.10;7.77;;;22.10;98.20;;;;;;5066927;28;20833;-64
2022/10/17 09:23:47;;;;;;;8.43;5.70;;;22.00;98.90;;;;;;5069878;28;20949;-64
2022/10/17 09:26:14;;;;;;;17.30;10.40;;;22.20;98.80;;;;;;5066773;28;20877;-64
2022/10/17 09:28:42;;;;;;;9.03;5.87;;;22.40;99.40;;;;;;5070140;28;20609;-63
2022/10/17 09:31:16;;;;;;;13.60;8.17;;;22.40;99.00;;;;;;5068748;28;20461;-64
2022/10/17 09:33:46;;;;;;;16.30;5.67;;;22.40;98.70;;;;;;5066959;28;20474;-64
2022/10/17 09:36:15;;;;;;;11.90;9.30;;;22.40;98.60;;;;;;5066946;28;20712;-64
2022/10/17 09:38:47;;;;;;;8.67;6.43;;;22.40;98.10;;;;;;5065003;28;21038;-65
2022/10/17 09:41:18;;;;;;;11.40;6.70;;;22.50;98.50;;;;;;5066835;28;20454;-64
2022/10/17 09:43:46;;;;;;;9.07;6.10;;;22.50;99.40;;;;;;5068791;28;20482;-64
2022/10/17 09:46:20;;;;;;;10.83;7.10;;;22.50;98.30;;;;;;5067504;28;20910;-64
2022/10/17 09:48:51;;;;;;;10.07;6.70;;;22.60;99.40;;;;;;5069253;28;20478;-64
2022/10/17 09:51:19;;;;;;;13.23;7.30;;;22.60;98.60;;;;;;5067446;28;20452;-64
2022/10/17 09:53:49;;;;;;;12.13;5.57;;;22.70;98.90;;;;;;5068678;28;20487;-64
2022/10/17 09:56:18;;;;;;;12.13;9.27;;;22.70;98.50;;;;;;5064038;28;20890;-64
2022/10/17 09:58:46;;;;;;;7.23;5.40;;;22.80;98.20;;;;;;5069646;28;20661;-64
2022/10/17 10:01:20;;;;;;;19.60;8.83;;;23.10;99.60;;;;;;5062786;28;20456;-64
2022/10/17 10:03:48;;;;;;;12.07;7.60;;;23.00;98.20;;;;;;5072322;28;20461;-64
2022/10/17 10:06:16;;;;;;;28.50;8.03;;;23.00;97.60;;;;;;5068962;28;21094;-64
2022/10/17 10:08:51;;;;;;;12.37;5.87;;;23.20;98.70;;;;;;5072108;28;20482;-64
2022/10/17 10:11:19;;;;;;;11.20;7.87;;;23.10;97.80;;;;;;5073561;28;20474;-64
2022/10/17 10:13:48;;;;;;;6.03;4.60;;;23.20;99.10;;;;;;5072474;28;20488;-65
2022/10/17 10:16:23;;;;;;;16.13;9.40;;;23.20;98.30;;;;;;5071289;28;20485;-65
2022/10/17 10:18:51;;;;;;;14.17;6.57;;;23.20;98.30;;;;;;5073279;28;20769;-64
2022/10/17 10:21:20;;;;;;;9.33;7.50;;;24.20;98.90;;;;;;5073283;28;20814;-64
2022/10/17 10:24:04;;;;;;;8.80;7.30;;;23.10;98.20;;;;;;5067609;28;20453;-65
2022/10/17 10:26:36;;;;;;;12.97;5.70;;;23.20;98.50;;;;;;5067184;28;20496;-64
2022/10/17 10:29:07;;;;;;;4.70;4.27;;;23.20;98.10;;;;;;5067567;28;21017;-65
2022/10/17 10:31:37;;;;;;;9.03;4.37;;;23.20;98.20;;;;;;5036148;28;20479;-64
2022/10/17 10:34:19;;;;;;;8.77;4.80;;;23.20;97.90;;;;;;5039444;28;20518;-64
2022/10/17 10:36:54;;;;;;;13.20;5.17;;;23.30;98.10;;;;;;5046256;28;20481;-64
2022/10/17 10:39:34;;;;;;;13.30;5.30;;;23.40;98.30;;;;;;5049534;28;20471;-64
2022/10/17 10:42:02;;;;;;;14.30;4.10;;;24.40;98.80;;;;;;5047897;28;20460;-64
2022/10/17 10:44:31;;;;;;;12.83;5.60;;;23.50;98.80;;;;;;5046131;28;20509;-64
2022/10/17 10:47:18;;;;;;;3.90;3.60;;;23.60;97.80;;;;;;5049619;28;20474;-64
2022/10/17 10:49:44;;;;;;;4.87;3.70;;;23.80;98.40;;;;;;5050705;28;20475;-64
2022/10/17 10:52:19;;;;;;;11.40;5.17;;;23.70;97.20;;;;;;5047138;28;20454;-64
2022/10/17 10:54:53;;;;;;;12.00;4.47;;;23.90;98.70;;;;;;5051650;28;20479;-64
2022/10/17 10:57:23;;;;;;;6.17;3.80;;;23.90;98.50;;;;;;5046630;28;20486;-64
2022/10/17 10:59:57;;;;;;;7.83;4.00;;;23.80;97.60;;;;;;5050966;28;20484;-65
2022/10/17 11:02:30;;;;;;;8.10;4.33;;;23.80;98.40;;;;;;5048834;28;20475;-65
2022/10/17 11:05:01;;;;;;;12.27;4.60;;;23.60;97.50;;;;;;5054600;28;20519;-65
2022/10/17 11:07:31;;;;;;;3.73;3.43;;;23.60;97.90;;;;;;5048426;28;20438;-65
2022/10/17 11:10:04;;;;;;;7.83;3.27;;;23.60;97.90;;;;;;5050938;28;20446;-64
2022/10/17 11:12:35;;;;;;;8.63;4.10;;;23.90;98.70;;;;;;5048898;28;20862;-65
2022/10/17 11:15:18;;;;;;;9.93;4.07;;;24.00;98.60;;;;;;5050785;28;20476;-64
2022/10/17 11:17:55;;;;;;;11.67;4.63;;;25.40;99.80;;;;;;5044728;28;20529;-65
2022/10/17 11:20:29;;;;;;;5.07;3.23;;;24.30;98.60;;;;;;5051289;28;20454;-65
2022/10/17 11:23:00;;;;;;;11.33;3.87;;;24.50;98.40;;;;;;5050622;28;20684;-64
2022/10/17 11:25:33;;;;;;;7.13;3.63;;;24.70;98.00;;;;;;5050645;28;20457;-65
2022/10/17 11:28:00;;;;;;;4.43;2.80;;;24.90;98.20;;;;;;5019160;28;20476;-65
2022/10/17 11:30:32;;;;;;;3.57;3.27;;;25.10;98.10;;;;;;5049805;28;20469;-64
2022/10/17 11:33:04;;;;;;;4.00;3.50;;;24.90;97.70;;;;;;5050185;28;20469;-65
2022/10/17 11:35:35;;;;;;;11.83;3.80;;;24.80;97.30;;;;;;5050966;28;20478;-65
2022/10/17 11:38:13;;;;;;;3.40;3.10;;;24.70;96.50;;;;;;5038084;28;20799;-64
2022/10/17 11:40:44;;;;;;;7.53;4.70;;;24.70;97.20;;;;;;5060033;28;20811;-64
2022/10/17 11:43:15;;;;;;;5.60;3.23;;;24.60;97.70;;;;;;5037098;28;20457;-65
2022/10/17 11:45:46;;;;;;;6.80;3.93;;;24.60;98.20;;;;;;5038271;28;21054;-64
2022/10/17 11:48:19;;;;;;;9.00;3.97;;;24.40;98.50;;;;;;5045147;28;20454;-65
2022/10/17 11:50:49;;;;;;;3.10;2.80;;;24.50;97.90;;;;;;5045334;28;20450;-65
2022/10/17 11:53:19;;;;;;;2.97;2.70;;;24.80;98.40;;;;;;5032756;28;20829;-65
2022/10/17 11:55:46;;;;;;;3.30;3.03;;;24.80;97.30;;;;;;5050516;28;20637;-65
2022/10/17 11:58:25;;;;;;;10.03;3.40;;;25.00;97.40;;;;;;5046343;28;20461;-65
2022/10/17 12:00:58;;;;;;;10.20;3.90;;;25.30;97.20;;;;;;5048939;28;20467;-64
2022/10/17 12:03:39;;;;;;;5.07;4.20;;;25.30;96.90;;;;;;5048803;28;20999;-65
2022/10/17 12:06:13;;;;;;;10.33;3.50;;;25.30;97.80;;;;;;5039277;28;20855;-65
2022/10/17 12:08:46;;;;;;;7.43;3.60;;;25.20;96.50;;;;;;5049332;28;20448;-65
2022/10/17 12:11:25;;;;;;;11.53;3.90;;;25.10;97.30;;;;;;5049422;28;20488;-65
2022/10/17 12:13:55;;;;;;;7.80;3.60;;;24.90;96.90;;;;;;5046828;28;20859;-65
2022/10/17 12:16:44;;;;;;;5.30;3.37;;;25.00;97.50;;;;;;5047931;28;20563;-64
2022/10/17 12:19:27;;;;;;;11.30;4.77;;;25.10;97.50;;;;;;5041530;28;20662;-65
2022/10/17 12:21:56;;;;;;;4.93;3.80;;;25.20;97.60;;;;;;5048116;28;20952;-64
2022/10/17 12:24:34;;;;;;;4.03;3.30;;;25.10;97.10;;;;;;5047011;28;20566;-64
2022/10/17 12:27:22;;;;;;;9.00;3.63;;;25.20;98.30;;;;;;5040092;28;20725;-65
2022/10/17 12:29:50;;;;;;;6.80;4.00;;;25.10;97.10;;;;;;5048038;28;20966;-65
2022/10/17 12:32:17;;;;;;;9.87;3.50;;;25.10;97.30;;;;;;5049610;28;20511;-65
2022/10/17 12:34:53;;;;;;;3.47;3.00;;;25.30;97.40;;;;;;5036128;28;20467;-65
2022/10/17 12:38:00;;;;;;;3.50;3.17;;;25.40;98.60;;;;;;5047235;28;20457;-65
2022/10/17 12:40:50;;;;;;;5.70;5.10;;;25.60;97.30;;;;;;5044601;28;20478;-66
2022/10/17 12:43:43;;;;;;;7.07;3.97;;;25.80;96.50;;;;;;5041710;28;20878;-65
2022/10/17 12:46:11;;;;;;;5.07;3.63;;;25.80;97.30;;;;;;5043645;28;20519;-65
2022/10/17 12:49:02;;;;;;;6.20;3.60;;;25.90;96.90;;;;;;5041613;28;20457;-65
2022/10/17 12:51:50;;;;;;;7.23;3.47;;;25.90;96.20;;;;;;5033422;28;20894;-65
2022/10/17 12:54:17;;;;;;;10.00;3.37;;;26.00;96.30;;;;;;5045482;28;20491;-65